Aérodrome :
LOGIN :

S'inscrire | Disclaimer

   EN    FR    IT 

 










Légende :    VFR   VFR Marginal   IFR   IFR Intensif   IFR Très Intensif
Visi : 
Plafond : 
>= 8 km
>= 3000ft
5 à 8 km
1000 à 3000 ft
1500m à 5 km
500 à 1000 ft
800 à 1500m
200 à 500 ft
< 800m
< 200 ft
Symboles :   Orages  Brouillard  Fortes neiges  Fortes précipitations  Vent > 20 kt
SIGMETs :   Divers  Orages  Givrage  Turbulence  Onde Orograph.  Cendres Volcan.






- Altitude de l'aérodrome : 2776 ft
- Code IATA : VLL


LEVD - Valladolid

DERNIER METAR :
  • 240530Z AUTO 15003KT CAVOK 00/M01 Q1030

METARs EXPIRÉS :
  • 240500Z AUTO 14004KT CAVOK 02/M01 Q1030
  • 240430Z AUTO VRB01KT 9000 NCD 01/M02 Q1029
  • 240400Z AUTO 08001KT 9000 NCD 03/M01 Q1029
  • 240330Z AUTO 00000KT CAVOK 03/M01 Q1030
  • 240300Z AUTO 32003KT 9000 NCD 01/M01 Q1030

TAF TAF LEVD
Valide du 24 à 06h jusqu'au 25 à 06h UTC


240500Z 2406/2506 VRB05KT CAVOK TX19/2416Z TNM01/2407Z
PROB40
TEMPO 2414/2420 27010KT
TEMPO 2420/2506 25010KT



MET'MAP, la Météo Aéronautique d'un coup d'oeil ! - Copyright ORBIFLY Décembre 2007 - Disclaimer

ORBIFLY MET'MAP TEAM :

Programmation & Développement : Alexandra Zaïnal
Sur une idée originale de : Baudouin d'Aumeries
Assistance à la programmation : Marc-Olivier Méhu
Soutien technique & logistique : Manuel Goepfert

Contact : metmap@orbifly.com




SOURCES & CREDITS :

   NOAA